Time;durP1;ratioP1;P1;durP2;ratioP2;P2;SDS_P1;SDS_P2;PMS_P1;PMS_P2;Temp;Humidity;BMP_temperature;BMP_pressure;BME280_temperature;BME280_humidity;BME280_pressure;Samples;Min_cycle;Max_cycle;Signal;HPM_P1;HPM_P2
2023/10/18 00:01:22;;;;;;;4.62;4.18;;;;;;;20.82;100.00;101273.94;143724;567;47008;-68
2023/10/18 00:03:49;;;;;;;4.47;4.07;;;;;;;20.84;100.00;101279.94;143725;710;47002;-68
2023/10/18 00:06:15;;;;;;;7.10;4.40;;;;;;;20.85;100.00;101267.94;143723;584;47006;-69
2023/10/18 00:08:43;;;;;;;6.20;4.28;;;;;;;20.93;100.00;101263.94;143725;604;47002;-68
2023/10/18 00:11:09;;;;;;;5.30;4.30;;;;;;;20.97;100.00;101265.09;143725;603;47008;-68
2023/10/18 00:13:36;;;;;;;6.28;4.00;;;;;;;20.94;100.00;101263.69;143724;588;47004;-68
2023/10/18 00:16:05;;;;;;;5.35;4.15;;;;;;;20.89;100.00;101260.91;143724;581;47006;-67
2023/10/18 00:18:37;;;;;;;5.97;4.50;;;;;;;20.79;100.00;101261.59;143727;600;47002;-68
2023/10/18 00:21:05;;;;;;;6.15;4.25;;;;;;;20.79;100.00;101263.53;143724;630;47010;-68
2023/10/18 00:23:32;;;;;;;5.75;4.22;;;;;;;20.79;100.00;101258.88;143722;567;47004;-68
2023/10/18 00:26:09;;;;;;;4.65;3.20;;;;;;;20.84;100.00;101255.38;143724;583;47006;-69
2023/10/18 00:28:38;;;;;;;4.30;3.65;;;;;;;20.75;100.00;101252.22;143722;575;47004;-68
2023/10/18 00:31:19;;;;;;;4.57;3.53;;;;;;;20.80;100.00;101246.87;143722;731;47010;-68
2023/10/18 00:33:46;;;;;;;4.45;3.47;;;;;;;20.88;100.00;101251.91;143721;594;47004;-68
2023/10/18 00:36:16;;;;;;;4.72;4.07;;;;;;;20.87;100.00;101255.72;143725;586;46006;-69
2023/10/18 00:38:46;;;;;;;4.37;3.55;;;;;;;20.82;100.00;101263.81;143721;569;47002;-69
2023/10/18 00:41:21;;;;;;;8.02;4.30;;;;;;;20.81;100.00;101262.19;143724;751;46010;-68
2023/10/18 00:43:50;;;;;;;5.93;4.35;;;;;;;20.88;100.00;101256.53;143721;602;47004;-68
2023/10/18 00:46:16;;;;;;;5.82;4.53;;;;;;;20.93;100.00;101247.56;143724;592;47006;-69
2023/10/18 00:48:44;;;;;;;5.37;4.87;;;;;;;20.92;100.00;101245.91;143723;574;47002;-68
2023/10/18 00:51:16;;;;;;;7.03;4.93;;;;;;;20.97;100.00;101256.91;143722;594;47008;-67
2023/10/18 00:53:43;;;;;;;5.93;4.28;;;;;;;20.98;100.00;101266.75;143722;581;47005;-67
2023/10/18 00:56:11;;;;;;;5.07;4.20;;;;;;;21.00;100.00;101256.38;143724;582;47006;-68
2023/10/18 00:58:41;;;;;;;4.78;4.28;;;;;;;21.00;100.00;101251.75;143722;585;47006;-68
2023/10/18 03:01:40;;;;;;;3.33;1.17;;;;;;;20.65;100.00;101271.22;143722;582;47008;-67
2023/10/18 03:04:14;;;;;;;5.03;2.87;;;;;;;20.66;100.00;101262.78;143723;588;47006;-68
2023/10/18 03:06:47;;;;;;;8.73;7.15;;;;;;;20.60;100.00;101258.34;143721;587;47007;-66
2023/10/18 03:11:57;;;;;;;;;;;;;;;20.58;100.00;101260.50;143726;979;46021;-66
2023/10/18 03:14:41;;;;;;;48.75;41.45;;;;;;;20.55;100.00;101263.72;143727;583;47002;-67
2023/10/18 03:17:16;;;;;;;18.45;15.75;;;;;;;20.57;100.00;101273.28;143723;588;47006;-67
2023/10/18 03:19:55;;;;;;;4.25;3.20;;;;;;;20.55;100.00;101261.84;143723;599;47002;-67
2023/10/18 03:22:23;;;;;;;1.02;0.65;;;;;;;20.45;100.00;101259.78;143722;579;47008;-67
2023/10/18 03:24:53;;;;;;;4.53;0.70;;;;;;;20.43;100.00;101272.00;143723;740;46008;-67
2023/10/18 03:27:19;;;;;;;0.37;0.30;;;;;;;20.37;100.00;101271.13;143724;692;46006;-66
2023/10/18 03:29:45;;;;;;;1.10;0.50;;;;;;;20.33;100.00;101278.16;143723;590;47002;-67
2023/10/18 03:32:15;;;;;;;0.75;0.50;;;;;;;20.30;100.00;101275.91;143721;695;47010;-67
2023/10/18 03:34:41;;;;;;;0.60;0.40;;;;;;;20.30;100.00;101278.66;143722;566;47004;-67
2023/10/18 03:37:18;;;;;;;0.50;0.50;;;;;;;20.22;100.00;101277.16;143721;685;47002;-68
2023/10/18 03:39:53;;;;;;;2.65;1.10;;;;;;;20.26;100.00;101280.25;143723;764;47004;-68
2023/10/18 03:42:31;;;;;;;0.93;0.60;;;;;;;20.26;100.00;101282.97;143723;572;47010;-69
2023/10/18 03:45:13;;;;;;;3.20;0.30;;;;;;;20.19;100.00;101288.59;143719;573;47008;-68
2023/10/18 03:47:41;;;;;;;1.95;0.30;;;;;;;20.27;100.00;101284.63;143724;579;47006;-67
2023/10/18 03:50:18;;;;;;;0.50;0.30;;;;;;;20.34;100.00;101287.19;143723;588;47002;-67
2023/10/18 03:52:45;;;;;;;0.80;0.52;;;;;;;20.37;100.00;101292.94;143724;592;47011;-67
2023/10/18 03:55:18;;;;;;;0.20;0.20;;;;;;;20.28;100.00;101291.72;143719;605;47004;-68
2023/10/18 03:57:45;;;;;;;0.85;0.30;;;;;;;20.26;100.00;101297.41;143722;580;46920;-69
2023/10/18 04:00:28;;;;;;;1.20;0.22;;;;;;;20.33;100.00;101301.87;143723;581;47002;-67
2023/10/18 04:02:59;;;;;;;0.98;0.55;;;;;;;20.35;100.00;101307.94;143722;684;46010;-68
2023/10/18 04:05:41;;;;;;;1.73;0.70;;;;;;;20.34;100.00;101314.47;143714;679;47004;-67
2023/10/18 04:08:16;;;;;;;1.45;0.85;;;;;;;20.33;100.00;101302.69;143720;757;46920;-67
2023/10/18 04:10:46;;;;;;;1.62;1.00;;;;;;;20.41;100.00;101310.47;143723;613;47002;-67
2023/10/18 04:13:14;;;;;;;3.58;1.17;;;;;;;20.43;100.00;101310.22;143720;582;47008;-67
2023/10/18 04:15:45;;;;;;;3.22;1.20;;;;;;;20.47;100.00;101313.28;143720;601;47004;-67
2023/10/18 04:18:25;;;;;;;3.78;1.52;;;;;;;20.37;100.00;101322.97;143717;584;47006;-67
2023/10/18 04:20:52;;;;;;;2.65;1.10;;;;;;;20.25;100.00;101317.59;143722;586;47002;-67
2023/10/18 04:23:20;;;;;;;2.50;0.80;;;;;;;20.17;100.00;101314.44;143722;596;46922;-67
2023/10/18 04:28:38;;;;;;;2.70;1.30;;;;;;;20.08;100.00;101308.59;143721;794;47011;-67
2023/10/18 04:31:08;;;;;;;3.45;1.58;;;;;;;20.17;100.00;101317.19;143716;896;47002;-67
2023/10/18 04:33:35;;;;;;;3.75;1.87;;;;;;;20.20;100.00;101319.41;143720;868;46926;-67
2023/10/18 04:36:20;;;;;;;2.22;1.40;;;;;;;20.18;100.00;101324.28;143723;590;46009;-68
2023/10/18 04:38:47;;;;;;;5.45;1.58;;;;;;;20.20;100.00;101324.87;143720;723;46006;-69
2023/10/18 04:41:25;;;;;;;1.52;1.00;;;;;;;20.11;100.00;101330.75;143721;586;47002;-67
2023/10/18 04:43:59;;;;;;;1.33;1.00;;;;;;;20.17;100.00;101322.63;143721;599;47009;-67
2023/10/18 04:46:28;;;;;;;0.80;0.50;;;;;;;20.10;100.00;101323.66;143718;718;47004;-68
2023/10/18 04:51:44;;;;;;;1.85;0.30;;;;;;;20.08;100.00;101328.53;143722;582;47007;-68
2023/10/18 04:54:15;;;;;;;0.98;0.50;;;;;;;20.17;100.00;101333.53;143721;586;47008;-67
2023/10/18 04:56:46;;;;;;;0.57;0.43;;;;;;;20.27;100.00;101333.72;143713;595;47004;-68
2023/10/18 05:01:59;;;;;;;0.90;0.32;;;;;;;20.35;100.00;101344.19;143724;601;47002;-66
2023/10/18 05:04:32;;;;;;;0.70;0.45;;;;;;;20.36;100.00;101350.50;143721;588;47010;-67
2023/10/18 05:07:15;;;;;;;0.77;0.40;;;;;;;20.34;100.00;101345.28;143722;572;47004;-69
2023/10/18 05:09:45;;;;;;;1.10;0.52;;;;;;;20.33;100.00;101349.06;143720;583;47006;-68
2023/10/18 05:12:30;;;;;;;1.00;0.65;;;;;;;20.34;100.00;101361.66;143723;587;47002;-69
2023/10/18 05:15:16;;;;;;;2.85;0.90;;;;;;;20.22;100.00;101372.63;143723;589;46011;-67
2023/10/18 05:17:43;;;;;;;1.87;1.00;;;;;;;20.11;100.00;101376.28;143722;605;47004;-68
2023/10/18 05:20:22;;;;;;;1.40;0.65;;;;;;;20.13;100.00;101379.59;143724;692;46006;-68
2023/10/18 05:22:52;;;;;;;1.70;0.90;;;;;;;20.11;100.00;101371.66;143715;894;47002;-68
2023/10/18 05:25:23;;;;;;;0.82;0.40;;;;;;;20.01;100.00;101367.94;143722;698;46010;-67
2023/10/18 05:28:00;;;;;;;1.65;0.50;;;;;;;19.99;100.00;101377.19;143722;584;47004;-68
2023/10/18 05:36:10;;;;;;;0.90;0.50;;;;;;;20.23;100.00;101378.94;143718;575;47009;-68
2023/10/18 05:38:51;;;;;;;0.77;0.50;;;;;;;20.23;100.00;101384.38;143722;938;47004;-67
2023/10/18 05:41:28;;;;;;;3.87;1.12;;;;;;;20.12;100.00;101395.09;143722;569;46006;-66
2023/10/18 05:44:00;;;;;;;2.20;0.80;;;;;;;20.06;100.00;101389.81;143724;736;47002;-66
2023/10/18 05:46:38;;;;;;;1.62;0.80;;;;;;;20.17;100.00;101394.38;143722;595;47008;-67
2023/10/18 05:49:13;;;;;;;2.00;0.73;;;;;;;20.18;100.00;101395.19;143714;583;47004;-67
2023/10/18 05:51:51;;;;;;;1.67;0.80;;;;;;;20.22;100.00;101402.63;143721;587;47007;-66
2023/10/18 05:54:31;;;;;;;1.62;0.90;;;;;;;20.28;100.00;101407.13;143719;589;47004;-66
2023/10/18 05:56:58;;;;;;;3.05;1.20;;;;;;;20.33;100.00;101411.81;143723;578;46010;-67
2023/10/18 05:59:33;;;;;;;1.33;0.80;;;;;;;20.30;100.00;101418.59;143719;721;47005;-67
2023/10/18 06:02:23;;;;;;;1.65;0.98;;;;;;;20.32;100.00;101415.63;143722;602;47006;-67
2023/10/18 06:04:51;;;;;;;1.50;1.02;;;;;;;20.24;100.00;101424.22;143721;584;47002;-67
2023/10/18 06:07:22;;;;;;;2.33;1.10;;;;;;;20.13;100.00;101429.50;143721;569;47008;-66
2023/10/18 06:09:58;;;;;;;2.80;1.27;;;;;;;20.07;100.00;101425.03;143720;592;47004;-66
2023/10/18 06:12:28;;;;;;;1.80;1.00;;;;;;;20.03;100.00;101434.78;143719;584;47006;-67
2023/10/18 06:14:57;;;;;;;2.03;1.17;;;;;;;20.04;100.00;101443.75;143715;586;47002;-67
2023/10/18 06:17:26;;;;;;;2.80;1.15;;;;;;;20.11;100.00;101442.56;143716;586;48004;-67
2023/10/18 06:19:56;;;;;;;3.58;1.37;;;;;;;20.23;100.00;101447.13;143722;686;47004;-66
2023/10/18 06:22:28;;;;;;;1.73;1.15;;;;;;;20.21;100.00;101444.63;143721;692;47004;-68
2023/10/18 06:24:57;;;;;;;2.28;1.20;;;;;;;20.18;100.00;101445.12;143725;584;46006;-67
2023/10/18 06:27:24;;;;;;;2.90;1.30;;;;;;;20.14;100.00;101447.50;143723;672;46010;-66
2023/10/18 06:29:56;;;;;;;2.72;1.83;;;;;;;20.19;100.00;101445.94;143721;581;47004;-66
2023/10/18 06:32:22;;;;;;;1.80;0.60;;;;;;;20.15;100.00;101440.16;143722;576;46006;-67
2023/10/18 06:34:55;;;;;;;0.82;0.40;;;;;;;20.18;100.00;101439.69;143725;575;47002;-66
2023/10/18 06:37:23;;;;;;;0.88;0.60;;;;;;;20.25;100.00;101437.59;143721;577;47011;-67
2023/10/18 06:39:51;;;;;;;0.73;0.50;;;;;;;20.23;100.00;101442.47;143716;972;47004;-66
2023/10/18 06:42:18;;;;;;;1.33;0.50;;;;;;;20.26;100.00;101443.91;143721;744;46006;-67
2023/10/18 06:44:44;;;;;;;0.95;0.70;;;;;;;20.35;100.00;101445.12;143723;595;47002;-67
2023/10/18 06:47:13;;;;;;;0.95;0.60;;;;;;;20.34;100.00;101443.47;143722;652;47004;-66
2023/10/18 06:49:42;;;;;;;2.50;1.30;;;;;;;20.39;100.00;101459.09;143721;579;47004;-67
2023/10/18 06:52:17;;;;;;;2.30;1.20;;;;;;;20.45;100.00;101460.84;143717;595;50002;-66
2023/10/18 06:54:45;;;;;;;1.50;1.00;;;;;;;20.44;100.00;101459.19;143723;771;47002;-67
2023/10/18 07:00:10;;;;;;;;;;;;;;;20.55;100.00;101460.22;143726;977;47004;-68
2023/10/18 07:02:38;;;;;;;4.07;1.70;;;;;;;20.62;100.00;101466.34;143725;575;47008;-67
2023/10/18 07:05:04;;;;;;;3.40;1.27;;;;;;;20.66;100.00;101469.38;143716;615;47004;-66
2023/10/18 07:07:31;;;;;;;3.25;1.45;;;;;;;20.70;100.00;101460.44;143719;601;47008;-66
2023/10/18 07:09:58;;;;;;;1.98;1.17;;;;;;;20.75;100.00;101460.56;143724;567;47002;-67
2023/10/18 07:12:27;;;;;;;2.20;1.25;;;;;;;20.80;100.00;101462.53;143719;677;47006;-64
2023/10/18 07:14:58;;;;;;;2.92;1.42;;;;;;;20.83;100.00;101470.25;143724;568;47004;-66
2023/10/18 07:17:25;;;;;;;1.90;1.17;;;;;;;20.87;100.00;101476.03;143720;583;47010;-67
2023/10/18 07:19:58;;;;;;;2.65;1.40;;;;;;;20.94;100.00;101475.84;143723;574;47004;-67
2023/10/18 07:22:41;;;;;;;1.80;0.98;;;;;;;20.95;100.00;101483.81;143722;599;46006;-67
2023/10/18 07:25:21;;;;;;;2.42;1.42;;;;;;;20.98;100.00;101479.75;143723;572;47004;-67
2023/10/18 07:27:48;;;;;;;2.75;1.10;;;;;;;21.03;100.00;101485.28;143720;602;47010;-66
2023/10/18 07:30:16;;;;;;;3.65;1.40;;;;;;;21.07;100.00;101485.59;143715;578;47004;-65
2023/10/18 07:32:47;;;;;;;1.60;1.08;;;;;;;21.07;100.00;101488.34;143722;593;46006;-67
2023/10/18 07:35:26;;;;;;;2.10;1.00;;;;;;;21.06;100.00;101493.00;143724;678;47002;-66
2023/10/18 07:37:54;;;;;;;2.87;0.95;;;;;;;21.00;100.00;101492.06;143722;568;47008;-66
2023/10/18 07:40:21;;;;;;;1.90;0.90;;;;;;;21.05;100.00;101489.41;143720;579;47004;-67
2023/10/18 07:42:51;;;;;;;1.48;0.95;;;;;;;21.13;100.00;101499.09;143723;573;46007;-66
2023/10/18 07:45:19;;;;;;;1.37;0.90;;;;;;;21.12;100.00;101497.44;143724;568;47004;-66
2023/10/18 07:47:45;;;;;;;2.08;0.90;;;;;;;21.10;100.00;101496.84;143724;588;46010;-66
2023/10/18 07:52:56;;;;;;;1.42;1.00;;;;;;;21.23;100.00;101489.41;143722;584;46010;-67
2023/10/18 07:55:23;;;;;;;2.28;1.58;;;;;;;21.26;100.00;101497.91;143713;572;48004;-67
2023/10/18 07:57:50;;;;;;;4.07;1.00;;;;;;;21.23;100.00;101492.13;143725;648;46019;-66
2023/10/18 08:00:23;;;;;;;2.28;1.23;;;;;;;21.32;100.00;101493.34;143721;708;47006;-65
2023/10/18 08:02:53;;;;;;;1.77;1.30;;;;;;;21.43;100.00;101500.63;143723;602;46008;-66
2023/10/18 08:05:30;;;;;;;2.28;1.20;;;;;;;21.39;100.00;101498.63;143723;596;47005;-67
2023/10/18 08:08:08;;;;;;;2.00;1.10;;;;;;;21.45;100.00;101503.09;143723;579;46924;-66
2023/10/18 08:10:35;;;;;;;1.50;1.00;;;;;;;21.50;100.00;101508.63;143721;602;47006;-65
2023/10/18 08:13:08;;;;;;;2.08;1.12;;;;;;;21.53;100.00;101510.00;143723;579;46009;-66
2023/10/18 08:15:38;;;;;;;1.90;1.12;;;;;;;21.54;100.00;101512.47;143724;581;47004;-66
2023/10/18 08:18:17;;;;;;;2.05;1.40;;;;;;;21.49;100.00;101521.44;143724;679;46010;-66
2023/10/18 08:26:06;;;;;;;4.30;1.73;;;;;;;21.42;100.00;101530.91;143726;582;47002;-66
2023/10/18 08:28:40;;;;;;;4.22;1.58;;;;;;;21.46;100.00;101527.41;143725;595;46021;-66
2023/10/18 08:31:34;;;;;;;5.30;1.92;;;;;;;21.45;100.00;101535.88;143723;592;47014;-66
2023/10/18 08:34:15;;;;;;;2.05;1.60;;;;;;;21.44;100.00;101529.59;143724;605;46924;-68
2023/10/18 08:36:44;;;;;;;3.53;1.52;;;;;;;21.35;100.00;101536.56;143726;584;47004;-67
2023/10/18 08:39:12;;;;;;;5.43;2.10;;;;;;;21.42;100.00;101536.38;143724;590;47008;-66
2023/10/18 08:42:02;;;;;;;3.15;1.70;;;;;;;21.45;100.00;101535.88;143723;592;47005;-68
2023/10/18 08:44:31;;;;;;;2.30;1.60;;;;;;;21.43;100.00;101521.63;143725;590;46019;-67
2023/10/18 08:47:12;;;;;;;2.35;1.90;;;;;;;21.54;100.00;101528.87;143718;581;47010;-67
2023/10/18 08:49:50;;;;;;;6.03;1.70;;;;;;;21.54;100.00;101526.16;143724;585;46008;-66
2023/10/18 08:52:23;;;;;;;4.95;2.47;;;;;;;21.54;100.00;101531.63;143721;630;47004;-67
2023/10/18 08:54:53;;;;;;;3.47;1.37;;;;;;;21.57;100.00;101531.13;143723;659;46006;-67
2023/10/18 08:57:35;;;;;;;3.40;1.90;;;;;;;21.62;100.00;101531.22;143723;591;47004;-66
2023/10/18 09:03:00;;;;;;;3.17;1.40;;;;;;;21.72;100.00;101535.16;143723;663;46018;-65
2023/10/18 09:05:26;;;;;;;3.20;1.48;;;;;;;21.78;100.00;101528.69;143723;768;46920;-68
2023/10/18 09:07:54;;;;;;;1.48;1.15;;;;;;;21.77;100.00;101536.06;143727;615;47002;-67
2023/10/18 09:10:42;;;;;;;3.10;1.50;;;;;;;21.80;100.00;101543.75;143723;708;47008;-68
2023/10/18 09:16:11;;;;;;;4.43;1.40;;;;;;;21.74;100.00;101536.56;143723;681;46013;-67
2023/10/18 09:18:38;;;;;;;2.50;0.95;;;;;;;21.67;100.00;101537.84;143723;601;47002;-67
2023/10/18 09:24:00;;;;;;;2.58;1.30;;;;;;;21.86;100.00;101536.47;143723;583;47930;-67
2023/10/18 09:26:26;;;;;;;1.85;0.90;;;;;;;22.02;100.00;101531.16;143723;620;46006;-67
2023/10/18 09:28:57;;;;;;;1.98;0.90;;;;;;;22.20;100.00;101532.72;143725;642;47004;-68
2023/10/18 09:31:24;;;;;;;2.62;1.20;;;;;;;22.30;100.00;101530.09;143721;598;47004;-67
2023/10/18 09:33:58;;;;;;;1.45;0.75;;;;;;;22.31;100.00;101523.53;143724;628;47004;-67
2023/10/18 09:36:28;;;;;;;1.65;1.00;;;;;;;22.37;100.00;101524.41;143724;591;46006;-69
2023/10/18 09:38:57;;;;;;;2.62;1.02;;;;;;;22.36;100.00;101528.25;143718;746;47002;-70
2023/10/18 09:41:32;;;;;;;3.55;1.08;;;;;;;22.37;100.00;101522.50;143721;603;47008;-68
2023/10/18 09:44:01;;;;;;;4.15;1.20;;;;;;;22.40;100.00;101519.25;143722;731;47004;-68
2023/10/18 09:46:28;;;;;;;3.62;1.00;;;;;;;22.49;100.00;101522.38;143723;577;47006;-68
2023/10/18 09:48:57;;;;;;;6.35;2.08;;;;;;;22.61;100.00;101518.63;143724;751;47004;-68
2023/10/18 09:51:26;;;;;;;8.02;2.05;;;;;;;22.73;100.00;101522.03;143724;567;46011;-68
2023/10/18 09:53:54;;;;;;;4.55;1.92;;;;;;;22.75;100.00;101519.03;143724;633;47004;-68
2023/10/18 09:56:26;;;;;;;10.13;2.65;;;;;;;22.84;100.00;101512.00;143724;582;46007;-68
2023/10/18 09:59:12;;;;;;;4.30;2.20;;;;;;;22.89;100.00;101520.22;143726;707;47002;-68
2023/10/18 10:04:34;;;;;;;7.40;1.62;;;;;;;22.71;100.00;101511.34;143718;589;47002;-68
2023/10/18 10:09:53;;;;;;;2.62;1.30;;;;;;;22.79;100.00;101501.00;143726;681;47002;-68
2023/10/18 10:12:27;;;;;;;5.22;1.60;;;;;;;22.92;100.00;101503.28;143724;570;47010;-68
2023/10/18 10:14:53;;;;;;;2.70;1.62;;;;;;;23.49;100.00;101500.06;143722;664;47004;-69
2023/10/18 10:17:28;;;;;;;2.95;1.10;;;;;;;23.72;100.00;101502.38;143723;599;46006;-68
2023/10/18 10:20:10;;;;;;;2.55;1.50;;;;;;;23.77;100.00;101499.66;143724;651;47002;-67
2023/10/18 10:22:41;;;;;;;2.97;1.60;;;;;;;23.68;100.00;101500.44;143723;577;47010;-69
2023/10/18 10:25:13;;;;;;;4.32;0.90;;;;;;;23.65;100.00;101498.22;143723;572;47004;-68
2023/10/18 10:27:41;;;;;;;1.45;0.75;;;;;;;23.76;100.00;101495.25;143724;626;46920;-68
2023/10/18 10:30:27;;;;;;;4.12;1.08;;;;;;;23.81;100.00;101497.19;143714;630;47002;-68
2023/10/18 10:33:05;;;;;;;4.40;1.30;;;;;;;23.77;100.00;101493.34;143723;652;47010;-67
2023/10/18 10:35:32;;;;;;;8.95;2.05;;;;;;;23.65;100.00;101493.56;143721;582;47004;-69
2023/10/18 10:38:13;;;;;;;5.37;2.15;;;;;;;23.57;100.00;101489.41;143719;566;48006;-69
2023/10/18 10:40:43;;;;;;;5.70;1.87;;;;;;;23.52;100.00;101497.63;143724;603;47003;-67
2023/10/18 10:43:12;;;;;;;7.10;1.60;;;;;;;23.57;100.00;101486.69;143722;587;48923;-67
2023/10/18 10:45:55;;;;;;;5.18;1.90;;;;;;;23.51;100.00;101484.19;143723;572;47004;-66
2023/10/18 10:48:30;;;;;;;5.87;1.67;;;;;;;23.51;100.00;101485.03;143724;589;46921;-68
2023/10/18 10:51:21;;;;;;;5.12;1.40;;;;;;;23.57;100.00;101483.12;143724;579;47006;-70
2023/10/18 10:53:57;;;;;;;4.70;1.30;;;;;;;23.70;100.00;101487.28;143723;575;47008;-68
2023/10/18 10:56:49;;;;;;;3.50;1.20;;;;;;;23.64;100.00;101483.72;143716;586;47005;-70
2023/10/18 10:59:17;;;;;;;3.65;1.27;;;;;;;23.49;100.00;101486.34;143724;584;47006;-69
2023/10/18 11:04:50;;;;;;;6.30;2.28;;;;;;;23.38;100.00;101496.47;143724;567;46008;-68
2023/10/18 11:07:22;;;;;;;5.05;1.02;;;;;;;23.33;100.00;101489.03;143722;610;47004;-68
2023/10/18 11:09:51;;;;;;;2.70;1.75;;;;;;;23.33;100.00;101491.78;143722;589;47007;-68
2023/10/18 11:12:18;;;;;;;2.67;1.40;;;;;;;23.33;100.00;101488.22;143724;581;47004;-68
2023/10/18 11:14:50;;;;;;;1.48;0.77;;;;;;;23.31;100.00;101492.06;143725;575;47008;-67
2023/10/18 11:17:23;;;;;;;0.90;0.40;;;;;;;23.01;100.00;101496.22;143722;573;47004;-69
2023/10/18 11:19:53;;;;;;;5.03;0.40;;;;;;;22.82;100.00;101492.25;143723;575;47006;-67
2023/10/18 11:22:21;;;;;;;3.17;0.77;;;;;;;22.91;100.00;101489.84;143719;633;47004;-67
2023/10/18 11:24:52;;;;;;;3.17;0.50;;;;;;;22.93;100.00;101496.72;143723;567;47010;-66
2023/10/18 11:27:33;;;;;;;5.85;0.73;;;;;;;22.98;100.00;101487.69;143722;570;47004;-66
2023/10/18 11:32:52;;;;;;;2.60;0.47;;;;;;;23.11;100.00;101489.16;143724;573;47006;-66
2023/10/18 11:35:27;;;;;;;4.07;0.52;;;;;;;23.14;100.00;101485.88;143725;606;47010;-71
2023/10/18 11:37:55;;;;;;;3.03;0.60;;;;;;;23.09;100.00;101483.09;143727;578;47004;-72
2023/10/18 11:40:21;;;;;;;2.90;0.80;;;;;;;23.13;100.00;101487.78;143725;631;46006;-68
2023/10/18 11:43:10;;;;;;;3.55;0.50;;;;;;;23.20;100.00;101486.75;143717;574;47004;-68
2023/10/18 11:45:41;;;;;;;2.10;0.70;;;;;;;23.26;100.00;101478.31;143723;676;46922;-68
2023/10/18 11:48:14;;;;;;;4.45;0.55;;;;;;;23.31;100.00;101481.09;143717;592;47004;-68
2023/10/18 11:50:48;;;;;;;0.88;0.50;;;;;;;23.30;100.00;101482.19;143723;575;46920;-67
2023/10/18 11:53:15;;;;;;;;;;;;;;;23.31;100.00;101478.34;143728;984;47004;-66
2023/10/18 11:55:58;;;;;;;1.27;0.47;;;;;;;23.41;100.00;101480.31;143726;624;47020;-68
2023/10/18 11:58:26;;;;;;;1.33;0.55;;;;;;;23.48;100.00;101482.81;143724;710;47004;-64
2023/10/18 12:01:00;;;;;;;1.40;0.82;;;;;;;23.47;100.00;101472.94;143721;740;47920;-66
2023/10/18 12:03:33;;;;;;;3.80;0.80;;;;;;;23.51;100.00;101476.78;143725;576;47000;-66
2023/10/18 12:06:01;;;;;;;2.00;0.70;;;;;;;23.53;100.00;101469.12;143723;590;46010;-67
2023/10/18 12:08:30;;;;;;;2.05;0.43;;;;;;;23.59;100.00;101468.03;143724;573;47002;-66
2023/10/18 12:10:57;;;;;;;6.72;0.70;;;;;;;23.70;100.00;101470.84;143723;584;47006;-65
2023/10/18 12:13:24;;;;;;;3.90;0.50;;;;;;;23.72;100.00;101463.97;143716;601;47002;-65
2023/10/18 12:15:52;;;;;;;1.95;0.60;;;;;;;23.70;100.00;101470.84;143723;628;46010;-66
2023/10/18 12:18:21;;;;;;;7.22;0.75;;;;;;;23.71;100.00;101467.00;143719;645;48003;-62
2023/10/18 12:20:51;;;;;;;6.65;0.73;;;;;;;23.73;100.00;101462.88;143723;587;46936;-67
2023/10/18 12:23:20;;;;;;;1.17;0.40;;;;;;;23.78;100.00;101464.81;143725;566;47002;-67
2023/10/18 12:25:47;;;;;;;1.10;0.43;;;;;;;23.84;100.00;101471.97;143724;617;47009;-65
2023/10/18 12:31:16;;;;;;;2.22;0.43;;;;;;;23.83;100.00;101461.28;143722;574;47006;-66
2023/10/18 12:33:57;;;;;;;0.88;0.50;;;;;;;23.81;100.00;101455.25;143725;569;47002;-67
2023/10/18 12:36:32;;;;;;;3.08;0.68;;;;;;;23.64;100.00;101464.50;143725;578;46010;-66
2023/10/18 12:39:02;;;;;;;4.85;0.50;;;;;;;23.61;100.00;101460.37;143715;573;47004;-66
2023/10/18 12:41:39;;;;;;;0.77;0.50;;;;;;;23.65;100.00;101462.59;143722;602;47006;-66
2023/10/18 12:44:17;;;;;;;2.37;0.60;;;;;;;23.66;100.00;101461.50;143722;573;47004;-65
2023/10/18 12:46:43;;;;;;;2.67;0.93;;;;;;;23.49;100.00;101462.53;143721;686;47010;-66
2023/10/18 12:49:11;;;;;;;2.75;0.80;;;;;;;23.42;100.00;101462.78;143723;609;47004;-67
2023/10/18 12:51:57;;;;;;;9.50;1.33;;;;;;;23.35;100.00;101459.44;143724;583;46006;-66
2023/10/18 12:54:29;;;;;;;2.03;0.80;;;;;;;23.44;100.00;101462.50;143725;627;47004;-66
2023/10/18 12:57:10;;;;;;;2.97;0.85;;;;;;;23.49;100.00;101459.78;143722;602;47008;-67
2023/10/18 13:00:00;;;;;;;4.65;0.93;;;;;;;23.61;100.00;101454.88;143720;606;47004;-67
2023/10/18 13:05:12;;;;;;;4.12;0.93;;;;;;;23.47;100.00;101459.22;143721;655;47000;-65
2023/10/18 13:07:43;;;;;;;2.33;0.62;;;;;;;23.41;100.00;101454.81;143721;621;47004;-65
2023/10/18 13:10:14;;;;;;;1.83;0.62;;;;;;;23.38;100.00;101447.13;143722;607;47005;-67
2023/10/18 13:12:53;;;;;;;1.95;0.62;;;;;;;23.50;100.00;101455.94;143718;574;47006;-66
2023/10/18 13:15:22;;;;;;;4.03;0.73;;;;;;;23.25;100.00;101454.72;143719;566;47002;-65
2023/10/18 13:17:51;;;;;;;4.32;0.52;;;;;;;23.20;100.00;101449.22;143720;567;47010;-65
2023/10/18 13:20:24;;;;;;;3.67;0.55;;;;;;;23.11;100.00;101454.37;143721;727;47004;-66
2023/10/18 13:22:57;;;;;;;0.93;0.40;;;;;;;22.99;100.00;101454.56;143721;566;47006;-66
2023/10/18 13:25:36;;;;;;;4.93;0.75;;;;;;;23.00;100.00;101453.50;143718;693;50000;-66
2023/10/18 13:28:06;;;;;;;1.52;0.45;;;;;;;23.03;100.00;101452.12;143720;584;47010;-66
2023/10/18 13:30:39;;;;;;;3.30;0.57;;;;;;;22.94;100.00;101456.47;143717;572;46930;-66
2023/10/18 13:33:12;;;;;;;2.87;0.40;;;;;;;23.01;100.00;101451.56;143719;721;47007;-65
2023/10/18 13:35:44;;;;;;;1.75;0.50;;;;;;;23.09;100.00;101448.34;143723;603;47004;-65
2023/10/18 13:38:15;;;;;;;3.92;0.70;;;;;;;23.09;100.00;101442.00;143721;592;47010;-65
2023/10/18 13:40:43;;;;;;;4.80;0.82;;;;;;;23.08;100.00;101452.16;143720;582;47004;-65
2023/10/18 13:43:13;;;;;;;5.60;1.12;;;;;;;23.08;100.00;101452.16;143719;572;47006;-65
2023/10/18 13:45:41;;;;;;;1.35;0.80;;;;;;;23.15;100.00;101452.72;143723;685;47004;-65
2023/10/18 13:48:08;;;;;;;2.75;0.70;;;;;;;23.23;100.00;101445.12;143721;583;47010;-65
2023/10/18 13:50:38;;;;;;;2.83;0.60;;;;;;;23.18;100.00;101456.87;143722;624;47004;-65
2023/10/18 13:53:07;;;;;;;3.12;0.60;;;;;;;23.17;100.00;101453.28;143719;693;47006;-66
2023/10/18 13:55:33;;;;;;;10.10;0.88;;;;;;;23.12;100.00;101461.47;143716;695;47002;-65
2023/10/18 13:58:00;;;;;;;1.12;0.40;;;;;;;23.05;100.00;101451.84;143720;662;47010;-66
2023/10/18 14:00:27;;;;;;;3.70;0.55;;;;;;;22.99;100.00;101459.22;143721;649;47004;-66
2023/10/18 14:02:53;;;;;;;1.35;0.43;;;;;;;22.97;100.00;101455.91;143721;619;47007;-64
2023/10/18 14:05:21;;;;;;;1.85;0.43;;;;;;;22.97;100.00;101451.28;143722;616;47004;-66
2023/10/18 14:07:48;;;;;;;1.83;0.55;;;;;;;23.10;100.00;101457.37;143723;704;46008;-65
2023/10/18 14:10:27;;;;;;;2.30;0.50;;;;;;;22.95;100.00;101452.59;143721;701;47004;-65
2023/10/18 14:12:55;;;;;;;1.20;0.60;;;;;;;22.92;100.00;101453.97;143719;647;47006;-66
2023/10/18 14:15:21;;;;;;;2.15;0.50;;;;;;;22.67;100.00;101460.09;143723;646;47004;-67
2023/10/18 14:17:52;;;;;;;0.50;0.40;;;;;;;22.65;100.00;101454.91;143722;680;46011;-65
2023/10/18 14:20:24;;;;;;;2.25;0.50;;;;;;;22.55;100.00;101450.16;143713;574;47004;-66
2023/10/18 14:22:57;;;;;;;0.70;0.40;;;;;;;22.59;100.00;101455.94;143721;741;47006;-65
2023/10/18 14:25:24;;;;;;;0.50;0.40;;;;;;;22.50;100.00;101454.78;143721;567;47002;-66
2023/10/18 14:27:51;;;;;;;3.05;0.55;;;;;;;22.68;100.00;101450.78;143719;709;47008;-64
2023/10/18 14:30:18;;;;;;;1.20;0.37;;;;;;;22.65;100.00;101457.63;143722;610;46022;-65
2023/10/18 14:32:45;;;;;;;0.98;0.60;;;;;;;22.75;100.00;101456.03;143721;685;47006;-65